sensor_id;sensor_type;location;lat;lon;timestamp;temperature;humidity
29571;DHT22;16814;52.118;11.436;2022-08-19T00:01:55;20.90;99.90
29571;DHT22;16814;52.118;11.436;2022-08-19T00:04:28;20.80;99.90
29571;DHT22;16814;52.118;11.436;2022-08-19T00:06:57;20.70;99.90
29571;DHT22;16814;52.118;11.436;2022-08-19T00:09:24;20.70;99.90
29571;DHT22;16814;52.118;11.436;2022-08-19T00:11:53;20.70;99.90
29571;DHT22;16814;52.118;11.436;2022-08-19T00:14:21;20.70;99.90
29571;DHT22;16814;52.118;11.436;2022-08-19T00:16:48;20.70;99.90
29571;DHT22;16814;52.118;11.436;2022-08-19T00:19:15;20.80;99.90
29571;DHT22;16814;52.118;11.436;2022-08-19T00:21:43;20.80;99.90
29571;DHT22;16814;52.118;11.436;2022-08-19T00:24:11;20.80;99.90
29571;DHT22;16814;52.118;11.436;2022-08-19T00:26:40;20.80;99.90
29571;DHT22;16814;52.118;11.436;2022-08-19T00:29:07;20.80;99.90
29571;DHT22;16814;52.118;11.436;2022-08-19T00:31:35;20.80;99.90
29571;DHT22;16814;52.118;11.436;2022-08-19T00:34:01;20.70;99.90
29571;DHT22;16814;52.118;11.436;2022-08-19T00:36:27;20.80;99.90
29571;DHT22;16814;52.118;11.436;2022-08-19T00:38:54;20.70;99.90
29571;DHT22;16814;52.118;11.436;2022-08-19T00:41:21;20.70;99.90
29571;DHT22;16814;52.118;11.436;2022-08-19T00:44:05;20.80;99.90
29571;DHT22;16814;52.118;11.436;2022-08-19T00:46:32;20.70;99.90
29571;DHT22;16814;52.118;11.436;2022-08-19T00:49:00;20.60;99.90
29571;DHT22;16814;52.118;11.436;2022-08-19T00:51:29;20.50;99.90
29571;DHT22;16814;52.118;11.436;2022-08-19T00:53:59;20.50;99.90
29571;DHT22;16814;52.118;11.436;2022-08-19T00:56:27;20.50;99.90
29571;DHT22;16814;52.118;11.436;2022-08-19T00:58:56;20.50;99.90
29571;DHT22;16814;52.118;11.436;2022-08-19T01:01:24;20.50;99.90
29571;DHT22;16814;52.118;11.436;2022-08-19T01:03:52;20.50;99.90
29571;DHT22;16814;52.118;11.436;2022-08-19T01:06:18;20.60;99.90
29571;DHT22;16814;52.118;11.436;2022-08-19T01:08:44;20.50;99.90
29571;DHT22;16814;52.118;11.436;2022-08-19T01:11:14;20.50;99.90
29571;DHT22;16814;52.118;11.436;2022-08-19T01:13:43;20.40;99.90
29571;DHT22;16814;52.118;11.436;2022-08-19T01:16:13;20.40;99.90
29571;DHT22;16814;52.118;11.436;2022-08-19T01:18:44;20.50;99.90
29571;DHT22;16814;52.118;11.436;2022-08-19T01:21:41;20.50;99.90
29571;DHT22;16814;52.118;11.436;2022-08-19T01:24:08;20.60;99.90
29571;DHT22;16814;52.118;11.436;2022-08-19T01:26:42;20.60;99.90
29571;DHT22;16814;52.118;11.436;2022-08-19T01:29:11;20.60;99.90
29571;DHT22;16814;52.118;11.436;2022-08-19T01:31:37;20.60;99.90
29571;DHT22;16814;52.118;11.436;2022-08-19T01:34:04;20.60;99.90
29571;DHT22;16814;52.118;11.436;2022-08-19T01:36:48;20.60;99.90
29571;DHT22;16814;52.118;11.436;2022-08-19T01:39:18;20.60;99.90
29571;DHT22;16814;52.118;11.436;2022-08-19T01:41:46;20.60;99.90
29571;DHT22;16814;52.118;11.436;2022-08-19T01:44:34;20.50;99.90
29571;DHT22;16814;52.118;11.436;2022-08-19T01:47:04;20.60;99.90
29571;DHT22;16814;52.118;11.436;2022-08-19T01:49:30;20.60;99.90
29571;DHT22;16814;52.118;11.436;2022-08-19T01:51:59;20.70;99.90
29571;DHT22;16814;52.118;11.436;2022-08-19T01:54:27;20.60;99.90
29571;DHT22;16814;52.118;11.436;2022-08-19T01:56:57;20.60;99.90
29571;DHT22;16814;52.118;11.436;2022-08-19T01:59:25;20.70;99.90
29571;DHT22;16814;52.118;11.436;2022-08-19T02:01:51;20.50;99.90
29571;DHT22;16814;52.118;11.436;2022-08-19T02:04:17;20.50;99.90
29571;DHT22;16814;52.118;11.436;2022-08-19T02:06:44;20.30;99.90
29571;DHT22;16814;52.118;11.436;2022-08-19T02:09:11;20.40;99.90
29571;DHT22;16814;52.118;11.436;2022-08-19T02:11:38;20.30;99.90
29571;DHT22;16814;52.118;11.436;2022-08-19T02:14:07;20.20;99.90
29571;DHT22;16814;52.118;11.436;2022-08-19T02:16:35;20.20;99.90
29571;DHT22;16814;52.118;11.436;2022-08-19T02:19:01;20.30;99.90
29571;DHT22;16814;52.118;11.436;2022-08-19T02:21:29;20.30;99.90
29571;DHT22;16814;52.118;11.436;2022-08-19T02:23:56;20.20;99.90
29571;DHT22;16814;52.118;11.436;2022-08-19T02:26:23;20.20;99.90
29571;DHT22;16814;52.118;11.436;2022-08-19T02:28:49;20.20;99.90
29571;DHT22;16814;52.118;11.436;2022-08-19T02:31:19;20.20;99.90
29571;DHT22;16814;52.118;11.436;2022-08-19T02:33:47;20.20;99.90
29571;DHT22;16814;52.118;11.436;2022-08-19T02:36:16;20.20;99.90
29571;DHT22;16814;52.118;11.436;2022-08-19T02:38:42;20.10;99.90
29571;DHT22;16814;52.118;11.436;2022-08-19T02:41:30;20.20;99.90
29571;DHT22;16814;52.118;11.436;2022-08-19T02:43:59;20.20;99.90
29571;DHT22;16814;52.118;11.436;2022-08-19T02:46:45;20.10;99.90
29571;DHT22;16814;52.118;11.436;2022-08-19T02:49:14;20.10;99.90
29571;DHT22;16814;52.118;11.436;2022-08-19T02:51:50;20.20;99.90
29571;DHT22;16814;52.118;11.436;2022-08-19T02:54:19;20.10;99.90
29571;DHT22;16814;52.118;11.436;2022-08-19T02:56:44;20.10;99.90
29571;DHT22;16814;52.118;11.436;2022-08-19T02:59:11;20.20;99.90
29571;DHT22;16814;52.118;11.436;2022-08-19T03:01:39;20.20;99.90
29571;DHT22;16814;52.118;11.436;2022-08-19T03:04:07;20.30;99.90
29571;DHT22;16814;52.118;11.436;2022-08-19T03:06:55;20.30;99.90
29571;DHT22;16814;52.118;11.436;2022-08-19T03:09:22;20.20;99.90
29571;DHT22;16814;52.118;11.436;2022-08-19T03:11:48;20.10;99.90
29571;DHT22;16814;52.118;11.436;2022-08-19T03:14:16;20.00;99.90
29571;DHT22;16814;52.118;11.436;2022-08-19T03:16:47;19.90;99.90
29571;DHT22;16814;52.118;11.436;2022-08-19T03:19:22;19.90;99.90
29571;DHT22;16814;52.118;11.436;2022-08-19T03:21:51;19.90;99.90
29571;DHT22;16814;52.118;11.436;2022-08-19T03:24:19;19.80;99.90
29571;DHT22;16814;52.118;11.436;2022-08-19T03:26:49;19.80;99.90
29571;DHT22;16814;52.118;11.436;2022-08-19T03:29:17;19.80;99.90
29571;DHT22;16814;52.118;11.436;2022-08-19T03:31:43;19.60;99.90
29571;DHT22;16814;52.118;11.436;2022-08-19T03:34:16;19.80;99.90
29571;DHT22;16814;52.118;11.436;2022-08-19T03:36:43;19.90;99.90
29571;DHT22;16814;52.118;11.436;2022-08-19T03:39:11;19.80;99.90
29571;DHT22;16814;52.118;11.436;2022-08-19T03:41:41;19.90;99.90
29571;DHT22;16814;52.118;11.436;2022-08-19T03:44:07;19.90;99.90
29571;DHT22;16814;52.118;11.436;2022-08-19T03:46:35;19.90;99.90
29571;DHT22;16814;52.118;11.436;2022-08-19T03:49:04;20.00;99.90
29571;DHT22;16814;52.118;11.436;2022-08-19T03:51:38;19.90;99.90
29571;DHT22;16814;52.118;11.436;2022-08-19T03:54:08;19.90;99.90
29571;DHT22;16814;52.118;11.436;2022-08-19T03:56:38;19.90;99.90
29571;DHT22;16814;52.118;11.436;2022-08-19T03:59:08;19.90;99.90
29571;DHT22;16814;52.118;11.436;2022-08-19T04:01:35;19.80;99.90
29571;DHT22;16814;52.118;11.436;2022-08-19T04:04:02;19.70;99.90
29571;DHT22;16814;52.118;11.436;2022-08-19T04:06:31;19.80;99.90
29571;DHT22;16814;52.118;11.436;2022-08-19T04:09:01;19.80;99.90
29571;DHT22;16814;52.118;11.436;2022-08-19T04:11:46;19.70;99.90
29571;DHT22;16814;52.118;11.436;2022-08-19T04:14:16;19.70;99.90
29571;DHT22;16814;52.118;11.436;2022-08-19T04:16:45;19.60;99.90
29571;DHT22;16814;52.118;11.436;2022-08-19T04:19:16;19.50;99.90
29571;DHT22;16814;52.118;11.436;2022-08-19T04:21:48;19.50;99.90
29571;DHT22;16814;52.118;11.436;2022-08-19T04:24:16;19.40;99.90
29571;DHT22;16814;52.118;11.436;2022-08-19T04:26:43;19.40;99.90
29571;DHT22;16814;52.118;11.436;2022-08-19T04:29:13;19.40;99.90
29571;DHT22;16814;52.118;11.436;2022-08-19T04:31:40;19.40;99.90
29571;DHT22;16814;52.118;11.436;2022-08-19T04:34:09;19.50;99.90
29571;DHT22;16814;52.118;11.436;2022-08-19T04:36:49;19.50;99.90
29571;DHT22;16814;52.118;11.436;2022-08-19T04:39:21;19.50;99.90
29571;DHT22;16814;52.118;11.436;2022-08-19T04:41:46;19.60;99.90
29571;DHT22;16814;52.118;11.436;2022-08-19T04:44:41;19.70;99.90
29571;DHT22;16814;52.118;11.436;2022-08-19T04:47:07;19.70;99.90
29571;DHT22;16814;52.118;11.436;2022-08-19T04:49:32;19.70;99.90
29571;DHT22;16814;52.118;11.436;2022-08-19T04:51:58;19.70;99.90
29571;DHT22;16814;52.118;11.436;2022-08-19T04:54:26;19.70;99.90
29571;DHT22;16814;52.118;11.436;2022-08-19T04:56:53;19.70;99.90
29571;DHT22;16814;52.118;11.436;2022-08-19T04:59:21;19.70;99.90
29571;DHT22;16814;52.118;11.436;2022-08-19T05:01:48;19.60;99.90
29571;DHT22;16814;52.118;11.436;2022-08-19T05:04:18;19.60;99.90
29571;DHT22;16814;52.118;11.436;2022-08-19T05:06:44;19.60;99.90
29571;DHT22;16814;52.118;11.436;2022-08-19T05:09:11;19.60;99.90
29571;DHT22;16814;52.118;11.436;2022-08-19T05:11:37;19.60;99.90
29571;DHT22;16814;52.118;11.436;2022-08-19T05:14:07;19.60;99.90
29571;DHT22;16814;52.118;11.436;2022-08-19T05:16:35;19.60;99.90
29571;DHT22;16814;52.118;11.436;2022-08-19T05:19:01;19.60;99.90
29571;DHT22;16814;52.118;11.436;2022-08-19T05:21:45;19.50;99.90
29571;DHT22;16814;52.118;11.436;2022-08-19T05:24:30;19.60;99.90
29571;DHT22;16814;52.118;11.436;2022-08-19T05:27:01;19.60;99.90
29571;DHT22;16814;52.118;11.436;2022-08-19T05:29:29;19.50;99.90
29571;DHT22;16814;52.118;11.436;2022-08-19T05:31:57;19.60;99.90
29571;DHT22;16814;52.118;11.436;2022-08-19T05:34:24;19.50;99.90
29571;DHT22;16814;52.118;11.436;2022-08-19T05:37:02;19.50;99.90
29571;DHT22;16814;52.118;11.436;2022-08-19T05:39:31;19.50;99.90
29571;DHT22;16814;52.118;11.436;2022-08-19T05:42:01;19.60;99.90
29571;DHT22;16814;52.118;11.436;2022-08-19T05:44:29;19.60;99.90
29571;DHT22;16814;52.118;11.436;2022-08-19T05:47:02;19.60;99.90
29571;DHT22;16814;52.118;11.436;2022-08-19T05:49:30;19.60;99.90
29571;DHT22;16814;52.118;11.436;2022-08-19T05:52:01;19.60;99.90
29571;DHT22;16814;52.118;11.436;2022-08-19T05:54:27;20.00;99.90
29571;DHT22;16814;52.118;11.436;2022-08-19T05:56:54;19.60;99.90
29571;DHT22;16814;52.118;11.436;2022-08-19T05:59:22;19.60;99.90
29571;DHT22;16814;52.118;11.436;2022-08-19T06:01:51;19.60;99.90
29571;DHT22;16814;52.118;11.436;2022-08-19T06:04:21;19.60;99.90
29571;DHT22;16814;52.118;11.436;2022-08-19T06:06:49;19.70;99.90
29571;DHT22;16814;52.118;11.436;2022-08-19T06:09:18;19.70;99.90
29571;DHT22;16814;52.118;11.436;2022-08-19T06:11:51;19.70;99.90
29571;DHT22;16814;52.118;11.436;2022-08-19T06:14:27;19.70;99.90
29571;DHT22;16814;52.118;11.436;2022-08-19T06:16:55;19.60;99.90
29571;DHT22;16814;52.118;11.436;2022-08-19T06:19:23;19.60;99.90
29571;DHT22;16814;52.118;11.436;2022-08-19T06:21:51;19.60;99.90
29571;DHT22;16814;52.118;11.436;2022-08-19T06:24:24;19.50;99.90
29571;DHT22;16814;52.118;11.436;2022-08-19T06:27:02;19.60;99.90
29571;DHT22;16814;52.118;11.436;2022-08-19T06:29:29;19.60;99.90
29571;DHT22;16814;52.118;11.436;2022-08-19T06:31:57;19.60;99.90
29571;DHT22;16814;52.118;11.436;2022-08-19T06:34:26;19.70;99.90
29571;DHT22;16814;52.118;11.436;2022-08-19T06:36:55;19.70;99.90
29571;DHT22;16814;52.118;11.436;2022-08-19T06:39:25;19.70;99.90
29571;DHT22;16814;52.118;11.436;2022-08-19T06:41:55;19.70;99.90
29571;DHT22;16814;52.118;11.436;2022-08-19T06:44:24;19.70;99.90
29571;DHT22;16814;52.118;11.436;2022-08-19T06:46:55;19.70;99.90
29571;DHT22;16814;52.118;11.436;2022-08-19T06:49:23;19.70;99.90
29571;DHT22;16814;52.118;11.436;2022-08-19T06:51:51;19.60;99.90
29571;DHT22;16814;52.118;11.436;2022-08-19T06:54:19;19.60;99.90
29571;DHT22;16814;52.118;11.436;2022-08-19T06:56:44;19.60;99.90
29571;DHT22;16814;52.118;11.436;2022-08-19T06:59:30;19.60;99.90
29571;DHT22;16814;52.118;11.436;2022-08-19T07:02:00;19.60;99.90
29571;DHT22;16814;52.118;11.436;2022-08-19T07:04:30;19.60;99.90
29571;DHT22;16814;52.118;11.436;2022-08-19T07:07:07;19.60;99.90
29571;DHT22;16814;52.118;11.436;2022-08-19T07:09:37;19.60;99.90
29571;DHT22;16814;52.118;11.436;2022-08-19T07:12:05;19.50;99.90
29571;DHT22;16814;52.118;11.436;2022-08-19T07:14:33;19.50;99.90
29571;DHT22;16814;52.118;11.436;2022-08-19T07:17:05;19.50;99.90
29571;DHT22;16814;52.118;11.436;2022-08-19T07:19:32;19.50;99.90
29571;DHT22;16814;52.118;11.436;2022-08-19T07:22:00;19.40;99.90
29571;DHT22;16814;52.118;11.436;2022-08-19T07:24:29;19.40;99.90
29571;DHT22;16814;52.118;11.436;2022-08-19T07:26:59;19.50;99.90
29571;DHT22;16814;52.118;11.436;2022-08-19T07:29:34;19.50;99.90
29571;DHT22;16814;52.118;11.436;2022-08-19T07:32:01;19.60;99.90
29571;DHT22;16814;52.118;11.436;2022-08-19T07:34:29;19.60;99.90
29571;DHT22;16814;52.118;11.436;2022-08-19T07:36:56;19.60;99.90
29571;DHT22;16814;52.118;11.436;2022-08-19T07:39:27;19.60;99.90
29571;DHT22;16814;52.118;11.436;2022-08-19T07:41:54;19.60;99.90
29571;DHT22;16814;52.118;11.436;2022-08-19T07:44:21;19.50;99.90
29571;DHT22;16814;52.118;11.436;2022-08-19T07:46:53;19.50;99.90
29571;DHT22;16814;52.118;11.436;2022-08-19T07:49:22;19.50;99.90
29571;DHT22;16814;52.118;11.436;2022-08-19T07:52:02;19.50;99.90
29571;DHT22;16814;52.118;11.436;2022-08-19T07:54:31;19.50;99.90
29571;DHT22;16814;52.118;11.436;2022-08-19T07:56:59;19.50;99.90
29571;DHT22;16814;52.118;11.436;2022-08-19T07:59:27;19.50;99.90
29571;DHT22;16814;52.118;11.436;2022-08-19T08:01:57;19.50;99.90
29571;DHT22;16814;52.118;11.436;2022-08-19T08:04:25;19.50;99.90
29571;DHT22;16814;52.118;11.436;2022-08-19T08:07:11;19.60;99.90
29571;DHT22;16814;52.118;11.436;2022-08-19T08:09:57;19.50;99.90
29571;DHT22;16814;52.118;11.436;2022-08-19T08:12:26;19.50;99.90
29571;DHT22;16814;52.118;11.436;2022-08-19T08:14:58;19.50;99.90
29571;DHT22;16814;52.118;11.436;2022-08-19T08:17:27;19.60;99.90
29571;DHT22;16814;52.118;11.436;2022-08-19T08:19:53;19.40;99.90
29571;DHT22;16814;52.118;11.436;2022-08-19T08:22:25;19.40;99.90
29571;DHT22;16814;52.118;11.436;2022-08-19T08:25:17;19.40;99.90
29571;DHT22;16814;52.118;11.436;2022-08-19T08:27:46;19.40;99.90
29571;DHT22;16814;52.118;11.436;2022-08-19T08:30:18;19.50;99.90
29571;DHT22;16814;52.118;11.436;2022-08-19T08:32:46;19.40;99.90
29571;DHT22;16814;52.118;11.436;2022-08-19T08:35:15;19.40;99.90
29571;DHT22;16814;52.118;11.436;2022-08-19T08:37:44;19.40;99.90
29571;DHT22;16814;52.118;11.436;2022-08-19T08:40:25;19.40;99.90
29571;DHT22;16814;52.118;11.436;2022-08-19T08:48:38;19.30;99.90
29571;DHT22;16814;52.118;11.436;2022-08-19T08:51:12;19.20;99.90
29571;DHT22;16814;52.118;11.436;2022-08-19T08:53:42;19.10;99.90
29571;DHT22;16814;52.118;11.436;2022-08-19T08:56:13;19.00;99.90
29571;DHT22;16814;52.118;11.436;2022-08-19T08:58:51;19.00;99.90
29571;DHT22;16814;52.118;11.436;2022-08-19T09:01:22;19.00;99.90
29571;DHT22;16814;52.118;11.436;2022-08-19T09:03:48;19.00;99.90
29571;DHT22;16814;52.118;11.436;2022-08-19T09:06:27;19.10;99.90
29571;DHT22;16814;52.118;11.436;2022-08-19T09:09:20;19.00;99.90
29571;DHT22;16814;52.118;11.436;2022-08-19T09:12:19;19.10;99.90
29571;DHT22;16814;52.118;11.436;2022-08-19T09:14:53;19.00;99.90
29571;DHT22;16814;52.118;11.436;2022-08-19T09:17:25;19.10;99.90
29571;DHT22;16814;52.118;11.436;2022-08-19T09:20:22;19.10;99.90
29571;DHT22;16814;52.118;11.436;2022-08-19T09:22:51;19.10;99.90
29571;DHT22;16814;52.118;11.436;2022-08-19T09:25:20;19.10;99.90
29571;DHT22;16814;52.118;11.436;2022-08-19T09:27:51;19.10;99.90
29571;DHT22;16814;52.118;11.436;2022-08-19T09:30:25;19.10;99.90
29571;DHT22;16814;52.118;11.436;2022-08-19T09:32:53;19.10;99.90
29571;DHT22;16814;52.118;11.436;2022-08-19T09:35:25;19.10;99.90
29571;DHT22;16814;52.118;11.436;2022-08-19T09:37:52;19.10;99.90
29571;DHT22;16814;52.118;11.436;2022-08-19T09:40:21;19.00;99.90
29571;DHT22;16814;52.118;11.436;2022-08-19T09:42:48;19.20;99.90
29571;DHT22;16814;52.118;11.436;2022-08-19T09:45:19;19.20;99.90
29571;DHT22;16814;52.118;11.436;2022-08-19T09:47:50;19.20;99.90
29571;DHT22;16814;52.118;11.436;2022-08-19T09:50:18;19.20;99.90
29571;DHT22;16814;52.118;11.436;2022-08-19T09:52:47;19.20;99.90
29571;DHT22;16814;52.118;11.436;2022-08-19T09:55:17;19.20;99.90
29571;DHT22;16814;52.118;11.436;2022-08-19T09:57:44;19.20;99.90
29571;DHT22;16814;52.118;11.436;2022-08-19T10:00:11;19.20;99.90
29571;DHT22;16814;52.118;11.436;2022-08-19T10:02:37;19.20;99.90
29571;DHT22;16814;52.118;11.436;2022-08-19T10:05:06;19.20;99.90
29571;DHT22;16814;52.118;11.436;2022-08-19T10:08:03;19.10;99.90
29571;DHT22;16814;52.118;11.436;2022-08-19T10:10:36;19.20;99.90
29571;DHT22;16814;52.118;11.436;2022-08-19T10:13:03;19.20;99.90
29571;DHT22;16814;52.118;11.436;2022-08-19T10:15:30;19.20;99.90
29571;DHT22;16814;52.118;11.436;2022-08-19T10:17:59;19.10;99.90
29571;DHT22;16814;52.118;11.436;2022-08-19T10:20:26;19.20;99.90
29571;DHT22;16814;52.118;11.436;2022-08-19T10:22:51;19.20;99.90
29571;DHT22;16814;52.118;11.436;2022-08-19T10:25:19;19.10;99.90
29571;DHT22;16814;52.118;11.436;2022-08-19T10:27:46;19.20;99.90
29571;DHT22;16814;52.118;11.436;2022-08-19T10:30:13;19.30;99.90
29571;DHT22;16814;52.118;11.436;2022-08-19T10:32:39;19.30;99.90
29571;DHT22;16814;52.118;11.436;2022-08-19T10:35:06;19.40;99.90
29571;DHT22;16814;52.118;11.436;2022-08-19T10:37:37;19.50;99.90
29571;DHT22;16814;52.118;11.436;2022-08-19T10:40:07;19.50;99.90
29571;DHT22;16814;52.118;11.436;2022-08-19T10:42:34;19.60;99.90
29571;DHT22;16814;52.118;11.436;2022-08-19T10:45:04;19.80;99.90
29571;DHT22;16814;52.118;11.436;2022-08-19T10:47:32;19.80;99.90
29571;DHT22;16814;52.118;11.436;2022-08-19T10:50:00;19.90;99.90
29571;DHT22;16814;52.118;11.436;2022-08-19T10:52:50;20.00;99.90
29571;DHT22;16814;52.118;11.436;2022-08-19T10:55:18;20.10;99.90
29571;DHT22;16814;52.118;11.436;2022-08-19T10:58:16;20.20;99.90
29571;DHT22;16814;52.118;11.436;2022-08-19T11:00:43;20.30;99.90
29571;DHT22;16814;52.118;11.436;2022-08-19T11:03:10;20.40;99.90
29571;DHT22;16814;52.118;11.436;2022-08-19T11:05:36;20.40;99.90
29571;DHT22;16814;52.118;11.436;2022-08-19T11:08:03;20.60;99.90
29571;DHT22;16814;52.118;11.436;2022-08-19T11:10:31;20.80;99.90
29571;DHT22;16814;52.118;11.436;2022-08-19T11:12:56;21.00;99.90
29571;DHT22;16814;52.118;11.436;2022-08-19T11:15:23;21.20;99.90
29571;DHT22;16814;52.118;11.436;2022-08-19T11:17:51;21.40;99.90
29571;DHT22;16814;52.118;11.436;2022-08-19T11:20:20;21.70;99.90
29571;DHT22;16814;52.118;11.436;2022-08-19T11:22:52;21.80;99.90
29571;DHT22;16814;52.118;11.436;2022-08-19T11:25:19;21.70;99.90
29571;DHT22;16814;52.118;11.436;2022-08-19T11:27:46;21.90;99.90
29571;DHT22;16814;52.118;11.436;2022-08-19T11:30:17;22.10;99.90
29571;DHT22;16814;52.118;11.436;2022-08-19T11:32:44;22.10;99.90
29571;DHT22;16814;52.118;11.436;2022-08-19T11:35:11;22.10;99.90
29571;DHT22;16814;52.118;11.436;2022-08-19T11:37:39;22.10;99.90
29571;DHT22;16814;52.118;11.436;2022-08-19T11:40:08;22.10;99.90
29571;DHT22;16814;52.118;11.436;2022-08-19T11:42:36;22.10;99.90
29571;DHT22;16814;52.118;11.436;2022-08-19T11:45:23;21.90;99.90
29571;DHT22;16814;52.118;11.436;2022-08-19T11:47:49;21.90;99.90
29571;DHT22;16814;52.118;11.436;2022-08-19T11:50:15;21.90;99.90
29571;DHT22;16814;52.118;11.436;2022-08-19T11:52:42;21.90;99.90
29571;DHT22;16814;52.118;11.436;2022-08-19T11:55:12;22.00;99.90
29571;DHT22;16814;52.118;11.436;2022-08-19T11:57:41;22.10;99.90
29571;DHT22;16814;52.118;11.436;2022-08-19T12:00:10;22.20;99.90
29571;DHT22;16814;52.118;11.436;2022-08-19T12:02:39;22.20;99.90
29571;DHT22;16814;52.118;11.436;2022-08-19T12:05:05;22.10;99.90
29571;DHT22;16814;52.118;11.436;2022-08-19T12:07:31;22.10;99.90
29571;DHT22;16814;52.118;11.436;2022-08-19T12:10:00;22.00;99.90
29571;DHT22;16814;52.118;11.436;2022-08-19T12:12:27;22.10;99.90
29571;DHT22;16814;52.118;11.436;2022-08-19T12:14:54;22.20;99.90
29571;DHT22;16814;52.118;11.436;2022-08-19T12:17:28;22.30;99.90
29571;DHT22;16814;52.118;11.436;2022-08-19T12:19:55;22.40;99.90
29571;DHT22;16814;52.118;11.436;2022-08-19T12:22:21;22.50;99.90
29571;DHT22;16814;52.118;11.436;2022-08-19T12:24:48;22.50;99.90
29571;DHT22;16814;52.118;11.436;2022-08-19T12:27:19;22.60;99.90
29571;DHT22;16814;52.118;11.436;2022-08-19T12:29:45;22.70;99.90
29571;DHT22;16814;52.118;11.436;2022-08-19T12:32:14;22.80;99.90
29571;DHT22;16814;52.118;11.436;2022-08-19T12:34:41;22.80;99.90
29571;DHT22;16814;52.118;11.436;2022-08-19T12:37:08;22.80;99.90
29571;DHT22;16814;52.118;11.436;2022-08-19T12:39:37;22.80;99.90
29571;DHT22;16814;52.118;11.436;2022-08-19T12:42:05;22.90;99.90
29571;DHT22;16814;52.118;11.436;2022-08-19T12:44:32;22.90;99.90
29571;DHT22;16814;52.118;11.436;2022-08-19T12:46:59;23.00;99.90
29571;DHT22;16814;52.118;11.436;2022-08-19T12:49:27;23.10;99.90
29571;DHT22;16814;52.118;11.436;2022-08-19T12:51:55;23.00;99.90
29571;DHT22;16814;52.118;11.436;2022-08-19T12:54:23;23.00;99.90
29571;DHT22;16814;52.118;11.436;2022-08-19T12:56:50;23.10;99.90
29571;DHT22;16814;52.118;11.436;2022-08-19T12:59:16;23.00;99.90
29571;DHT22;16814;52.118;11.436;2022-08-19T13:01:45;23.00;99.90
29571;DHT22;16814;52.118;11.436;2022-08-19T13:04:11;23.00;99.90
29571;DHT22;16814;52.118;11.436;2022-08-19T13:06:37;23.20;99.90
29571;DHT22;16814;52.118;11.436;2022-08-19T13:09:04;23.40;99.90
29571;DHT22;16814;52.118;11.436;2022-08-19T13:11:30;23.50;99.90
29571;DHT22;16814;52.118;11.436;2022-08-19T13:14:00;23.60;99.90
29571;DHT22;16814;52.118;11.436;2022-08-19T13:16:34;23.50;99.90
29571;DHT22;16814;52.118;11.436;2022-08-19T13:19:02;23.10;99.90
29571;DHT22;16814;52.118;11.436;2022-08-19T13:21:32;23.20;99.90
29571;DHT22;16814;52.118;11.436;2022-08-19T13:23:59;23.30;99.90
29571;DHT22;16814;52.118;11.436;2022-08-19T13:26:26;23.40;99.90
29571;DHT22;16814;52.118;11.436;2022-08-19T13:28:51;23.40;99.90
29571;DHT22;16814;52.118;11.436;2022-08-19T13:31:42;23.40;99.90
29571;DHT22;16814;52.118;11.436;2022-08-19T13:34:34;23.50;99.90
29571;DHT22;16814;52.118;11.436;2022-08-19T13:37:03;23.50;99.90
29571;DHT22;16814;52.118;11.436;2022-08-19T13:39:32;23.60;99.90
29571;DHT22;16814;52.118;11.436;2022-08-19T13:41:58;23.50;99.90
29571;DHT22;16814;52.118;11.436;2022-08-19T13:44:27;23.60;99.90
29571;DHT22;16814;52.118;11.436;2022-08-19T13:47:06;23.60;99.90
29571;DHT22;16814;52.118;11.436;2022-08-19T13:49:35;23.60;99.90
29571;DHT22;16814;52.118;11.436;2022-08-19T13:52:03;23.30;99.90
29571;DHT22;16814;52.118;11.436;2022-08-19T13:54:29;23.30;99.90
29571;DHT22;16814;52.118;11.436;2022-08-19T13:56:58;23.30;99.90
29571;DHT22;16814;52.118;11.436;2022-08-19T13:59:24;23.10;99.90
29571;DHT22;16814;52.118;11.436;2022-08-19T14:01:51;23.20;99.90
29571;DHT22;16814;52.118;11.436;2022-08-19T14:04:19;23.30;99.90
29571;DHT22;16814;52.118;11.436;2022-08-19T14:06:46;23.30;99.90
29571;DHT22;16814;52.118;11.436;2022-08-19T14:09:12;23.30;99.90
29571;DHT22;16814;52.118;11.436;2022-08-19T14:11:39;23.30;99.90
29571;DHT22;16814;52.118;11.436;2022-08-19T14:14:06;23.30;99.90
29571;DHT22;16814;52.118;11.436;2022-08-19T14:16:31;23.00;99.90
29571;DHT22;16814;52.118;11.436;2022-08-19T14:18:58;23.00;99.90
29571;DHT22;16814;52.118;11.436;2022-08-19T14:21:25;23.20;99.90
29571;DHT22;16814;52.118;11.436;2022-08-19T14:26:22;23.10;99.90
29571;DHT22;16814;52.118;11.436;2022-08-19T14:28:49;23.10;99.90
29571;DHT22;16814;52.118;11.436;2022-08-19T14:31:18;23.00;99.90
29571;DHT22;16814;52.118;11.436;2022-08-19T14:33:47;22.90;99.90
29571;DHT22;16814;52.118;11.436;2022-08-19T14:36:14;23.00;99.90
29571;DHT22;16814;52.118;11.436;2022-08-19T14:38:41;23.00;99.90
29571;DHT22;16814;52.118;11.436;2022-08-19T14:41:18;23.10;99.90
29571;DHT22;16814;52.118;11.436;2022-08-19T14:43:49;22.90;99.90
29571;DHT22;16814;52.118;11.436;2022-08-19T14:46:23;22.90;99.90
29571;DHT22;16814;52.118;11.436;2022-08-19T14:48:51;22.70;99.90
29571;DHT22;16814;52.118;11.436;2022-08-19T14:51:18;22.40;99.90
29571;DHT22;16814;52.118;11.436;2022-08-19T14:53:45;22.30;99.90
29571;DHT22;16814;52.118;11.436;2022-08-19T14:56:19;22.40;99.90
29571;DHT22;16814;52.118;11.436;2022-08-19T14:58:45;22.30;99.90
29571;DHT22;16814;52.118;11.436;2022-08-19T15:01:11;22.30;99.90
29571;DHT22;16814;52.118;11.436;2022-08-19T15:03:39;22.40;99.90
29571;DHT22;16814;52.118;11.436;2022-08-19T15:06:07;22.30;99.90
29571;DHT22;16814;52.118;11.436;2022-08-19T15:08:36;22.10;99.90
29571;DHT22;16814;52.118;11.436;2022-08-19T15:13:38;22.20;99.90
29571;DHT22;16814;52.118;11.436;2022-08-19T15:16:06;22.10;99.90
29571;DHT22;16814;52.118;11.436;2022-08-19T15:18:34;22.10;99.90
29571;DHT22;16814;52.118;11.436;2022-08-19T15:21:01;22.00;99.90
29571;DHT22;16814;52.118;11.436;2022-08-19T15:23:29;22.00;99.90
29571;DHT22;16814;52.118;11.436;2022-08-19T15:25:54;22.00;99.90
29571;DHT22;16814;52.118;11.436;2022-08-19T15:28:23;22.00;99.90
29571;DHT22;16814;52.118;11.436;2022-08-19T15:30:50;22.00;99.90
29571;DHT22;16814;52.118;11.436;2022-08-19T15:33:17;21.90;99.90
29571;DHT22;16814;52.118;11.436;2022-08-19T15:35:47;21.90;99.90
29571;DHT22;16814;52.118;11.436;2022-08-19T15:38:18;22.00;99.90
29571;DHT22;16814;52.118;11.436;2022-08-19T15:40:50;22.10;99.90
29571;DHT22;16814;52.118;11.436;2022-08-19T15:43:19;22.00;99.90